createdAt,value
2016-03-31T00:00:53.804Z,85.11
2016-03-31T00:01:53.790Z,85.2
2016-03-31T00:02:53.637Z,85.01
2016-03-31T00:03:53.796Z,85.11
2016-03-31T00:04:53.799Z,85.49
2016-03-31T00:05:53.817Z,85.49
2016-03-31T00:06:53.803Z,85.68
2016-03-31T00:07:53.791Z,85.49
2016-03-31T00:08:53.794Z,85.39
2016-03-31T00:09:53.797Z,85.96
2016-03-31T00:10:53.799Z,85.86
2016-03-31T00:11:53.802Z,85.77
2016-03-31T00:12:53.805Z,85.39
2016-03-31T00:13:53.792Z,85.68
2016-03-31T00:14:53.811Z,85.49
2016-03-31T00:15:53.797Z,85.49
2016-03-31T00:16:53.799Z,85.96
2016-03-31T00:17:53.801Z,85.96
2016-03-31T00:18:53.787Z,86.05
2016-03-31T00:19:53.811Z,86.05
2016-03-31T00:20:53.803Z,85.96
2016-03-31T00:21:53.805Z,86.15
2016-03-31T00:22:53.807Z,86.34
2016-03-31T00:23:53.796Z,86.43
2016-03-31T00:24:53.813Z,86.15
2016-03-31T00:25:53.801Z,86.24
2016-03-31T00:26:53.804Z,86.24
2016-03-31T00:27:53.806Z,86.34
2016-03-31T00:28:53.809Z,86.34
2016-03-31T00:29:53.796Z,87.01
2016-03-31T00:30:53.803Z,87.1
2016-03-31T00:31:53.822Z,86.72
2016-03-31T00:32:53.796Z,86.63
2016-03-31T00:33:53.798Z,86.82
2016-03-31T00:34:53.801Z,86.72
2016-03-31T00:35:53.804Z,86.72
2016-03-31T00:36:53.807Z,86.91
2016-03-31T00:37:53.794Z,86.72
2016-03-31T00:38:53.796Z,87.01
2016-03-31T00:39:53.800Z,87.01
2016-03-31T00:40:53.802Z,87.01
2016-03-31T00:41:53.805Z,86.91
2016-03-31T00:42:53.808Z,86.91
2016-03-31T00:43:53.841Z,86.72
2016-03-31T00:44:53.797Z,86.53
2016-03-31T00:45:53.800Z,86.91
2016-03-31T00:46:53.802Z,87.01
2016-03-31T00:47:53.805Z,86.91
2016-03-31T00:48:53.808Z,87.01
2016-03-31T00:49:53.794Z,87.1
2016-03-31T00:50:53.814Z,87.1
2016-03-31T00:51:53.800Z,86.91
2016-03-31T00:52:53.803Z,86.63
2016-03-31T00:53:53.805Z,86.72
2016-03-31T00:54:53.824Z,86.63
2016-03-31T00:55:53.795Z,87.29
2016-03-31T00:56:53.798Z,87.01
2016-03-31T00:57:53.801Z,87.1
2016-03-31T00:58:53.804Z,87.29
2016-03-31T00:59:53.806Z,86.72
2016-03-31T01:00:53.809Z,87.1
2016-03-31T01:01:53.812Z,87.1
2016-03-31T01:02:53.814Z,87.1
2016-03-31T01:03:53.817Z,86.72
2016-03-31T01:04:53.804Z,87.1
2016-03-31T01:05:53.822Z,87.01
2016-03-31T01:06:53.809Z,86.82
2016-03-31T01:07:53.812Z,86.82
2016-03-31T01:08:53.798Z,87.1
2016-03-31T01:09:53.802Z,87.1
2016-03-31T01:10:53.804Z,87.01
2016-03-31T01:11:53.807Z,87.29
2016-03-31T01:12:53.809Z,86.53
2016-03-31T01:13:53.812Z,87.1
2016-03-31T01:14:53.815Z,87.1
2016-03-31T01:15:53.817Z,86.82
2016-03-31T01:16:53.820Z,87.29
2016-03-31T01:17:53.808Z,86.82
2016-03-31T01:18:53.825Z,86.91
2016-03-31T01:19:53.813Z,86.96
2016-03-31T01:20:53.815Z,87.24
2016-03-31T01:21:53.818Z,87.24
2016-03-31T01:22:53.836Z,86.96
2016-03-31T01:23:53.808Z,86.77
2016-03-31T01:24:53.826Z,86.58
2016-03-31T01:25:53.829Z,87.24
2016-03-31T01:26:53.815Z,87.05
2016-03-31T01:27:53.803Z,87.05
2016-03-31T01:28:53.821Z,87.05
2016-03-31T01:29:53.808Z,86.96
2016-03-31T01:30:53.826Z,87.05
2016-03-31T01:31:53.814Z,87.15
2016-03-31T01:32:53.817Z,87.34
2016-03-31T01:33:53.819Z,87.72
2016-03-31T01:34:53.837Z,88.2
2016-03-31T01:35:53.825Z,88.39
2016-03-31T01:36:53.809Z,88.1
2016-03-31T01:37:53.830Z,88.29
2016-03-31T01:38:53.814Z,88.29
2016-03-31T01:39:53.818Z,88.39
2016-03-31T01:40:53.804Z,88.48
2016-03-31T01:41:53.806Z,88.48
2016-03-31T01:42:53.810Z,88.76
2016-03-31T01:43:53.828Z,88.95
2016-03-31T01:44:53.815Z,88.95
2016-03-31T01:45:53.817Z,88.76
2016-03-31T01:46:53.805Z,89.43
2016-03-31T01:47:53.808Z,89.05
2016-03-31T01:48:53.810Z,89.24
2016-03-31T01:49:53.813Z,89.14
2016-03-31T01:50:53.816Z,89.14
2016-03-31T01:51:53.802Z,89.43
2016-03-31T01:52:53.805Z,89.43
2016-03-31T01:53:53.808Z,89.53
2016-03-31T01:54:53.810Z,89.53
2016-03-31T01:55:53.813Z,89.62
2016-03-31T01:56:53.816Z,89.43
2016-03-31T01:57:53.802Z,89.62
2016-03-31T01:58:53.805Z,89.53
2016-03-31T01:59:53.808Z,89.53
2016-03-31T02:00:53.811Z,89.53
2016-03-31T02:01:53.813Z,89.05
2016-03-31T02:02:53.816Z,89.33
2016-03-31T02:03:53.819Z,88.67
2016-03-31T02:04:53.821Z,89.48
2016-03-31T02:05:53.824Z,89.29
2016-03-31T02:06:53.812Z,89.48
2016-03-31T02:07:53.807Z,89.39
2016-03-31T02:08:53.810Z,89.48
2016-03-31T02:09:53.813Z,89
2016-03-31T02:10:53.815Z,89.39
2016-03-31T02:11:53.803Z,89.39
2016-03-31T02:12:53.821Z,89.58
2016-03-31T02:13:53.808Z,89.58
2016-03-31T02:14:53.826Z,89.67
2016-03-31T02:15:53.813Z,89.58
2016-03-31T02:16:53.815Z,89.29
2016-03-31T02:17:53.806Z,89.39
2016-03-31T02:18:53.809Z,89.39
2016-03-31T02:19:53.812Z,89.1
2016-03-31T02:20:53.815Z,89.2
2016-03-31T02:21:53.817Z,89.39
2016-03-31T02:22:53.820Z,89.39
2016-03-31T02:23:53.822Z,89.48
2016-03-31T02:24:53.825Z,89.67
2016-03-31T02:25:53.811Z,89.48
2016-03-31T02:26:53.814Z,89.48
2016-03-31T02:27:53.817Z,89.29
2016-03-31T02:28:53.819Z,89.48
2016-03-31T02:29:53.806Z,89.48
2016-03-31T02:30:53.809Z,89.58
2016-03-31T02:31:53.811Z,89.67
2016-03-31T02:32:53.814Z,89.2
2016-03-31T02:33:53.817Z,89.39
2016-03-31T02:34:53.820Z,90.05
2016-03-31T02:35:53.822Z,89.86
2016-03-31T02:36:53.810Z,89.67
2016-03-31T02:37:53.813Z,90.05
2016-03-31T02:38:53.815Z,89.95
2016-03-31T02:39:53.818Z,89.76
2016-03-31T02:40:53.805Z,90.19
2016-03-31T02:41:53.807Z,90.62
2016-03-31T02:42:53.811Z,90.52
2016-03-31T02:43:53.829Z,90.1
2016-03-31T02:44:53.816Z,90.19
2016-03-31T02:45:53.818Z,90
2016-03-31T02:46:53.822Z,90.38
2016-03-31T02:47:53.809Z,90.43
2016-03-31T02:48:53.811Z,90.43
2016-03-31T02:49:53.814Z,90.33
2016-03-31T02:50:53.817Z,89.86
2016-03-31T02:51:53.834Z,90
2016-03-31T02:52:53.807Z,90.43
2016-03-31T02:53:53.809Z,90.33
2016-03-31T02:54:53.812Z,90.19
2016-03-31T02:55:53.814Z,90.38
2016-03-31T02:56:53.817Z,90.29
2016-03-31T02:57:53.820Z,90
2016-03-31T02:58:53.822Z,90.1
2016-03-31T02:59:53.809Z,90.76
2016-03-31T03:00:53.828Z,90.67
2016-03-31T03:01:53.814Z,90.67
2016-03-31T03:02:53.803Z,90.67
2016-03-31T03:03:53.820Z,90.29
2016-03-31T03:04:53.823Z,90.95
2016-03-31T03:05:53.825Z,90.67
2016-03-31T03:06:53.813Z,90.48
2016-03-31T03:07:53.915Z,90.9
2016-03-31T03:08:53.828Z,91.09
2016-03-31T03:09:53.800Z,91.09
2016-03-31T03:10:53.786Z,91
2016-03-31T03:11:53.806Z,91.56
2016-03-31T03:12:53.792Z,91.28
2016-03-31T03:13:53.811Z,91.19
2016-03-31T03:14:53.783Z,91.38
2016-03-31T03:15:53.785Z,91.47
2016-03-31T03:16:53.788Z,91.47
2016-03-31T03:17:53.806Z,91.19
2016-03-31T03:18:53.794Z,90.9
2016-03-31T03:19:53.796Z,91.38
2016-03-31T03:20:53.798Z,91.56
2016-03-31T03:21:53.802Z,91.09
2016-03-31T03:22:53.804Z,91.38
2016-03-31T03:23:53.791Z,91.38
2016-03-31T03:24:53.794Z,91.19
2016-03-31T03:25:53.781Z,91.28
2016-03-31T03:26:53.799Z,91.28
2016-03-31T03:27:53.786Z,91.38
2016-03-31T03:28:53.790Z,91.19
2016-03-31T03:29:53.792Z,91.56
2016-03-31T03:30:53.794Z,91.28
2016-03-31T03:31:53.782Z,91.09
2016-03-31T03:32:53.800Z,91.28
2016-03-31T03:33:53.803Z,90.9
2016-03-31T03:34:53.790Z,90.71
2016-03-31T03:35:53.792Z,90.81
2016-03-31T03:36:53.778Z,90.62
2016-03-31T03:37:53.797Z,90.9
2016-03-31T03:38:53.784Z,90.81
2016-03-31T03:39:53.786Z,90.9
2016-03-31T03:40:53.805Z,90.57
2016-03-31T03:41:53.792Z,90.9
2016-03-31T03:42:53.795Z,91.09
2016-03-31T03:43:53.797Z,91.09
2016-03-31T03:44:53.801Z,91.19
2016-03-31T03:45:53.788Z,91
2016-03-31T03:46:53.805Z,91.09
2016-03-31T03:47:53.794Z,91.09
2016-03-31T03:48:53.796Z,91.33
2016-03-31T03:49:53.799Z,91.33
2016-03-31T03:50:53.785Z,91.19
2016-03-31T03:51:53.788Z,91.38
2016-03-31T03:52:53.791Z,91
2016-03-31T03:53:53.778Z,91.09
2016-03-31T03:54:53.797Z,91.05
2016-03-31T03:55:53.783Z,91.38
2016-03-31T03:56:53.785Z,90.95
2016-03-31T03:57:53.789Z,91.38
2016-03-31T03:58:53.791Z,91.09
2016-03-31T03:59:53.794Z,91.38
2016-03-31T04:00:53.781Z,91.33
2016-03-31T04:01:53.784Z,91.19
2016-03-31T04:02:53.786Z,91.38
2016-03-31T04:03:53.789Z,91.28
2016-03-31T04:04:53.792Z,91.28
2016-03-31T04:05:53.795Z,90.9
2016-03-31T04:06:53.781Z,91.09
2016-03-31T04:07:53.784Z,90.9
2016-03-31T04:08:53.787Z,91.19
2016-03-31T04:09:53.789Z,91.28
2016-03-31T04:10:53.792Z,91.47
2016-03-31T04:11:53.828Z,91.28
2016-03-31T04:12:53.964Z,91.28
2016-03-31T04:13:53.615Z,91.56
2016-03-31T04:14:53.817Z,91.56
2016-03-31T04:15:53.880Z,91.38
2016-03-31T04:16:53.758Z,91.47
2016-03-31T04:17:53.761Z,91
2016-03-31T04:18:53.763Z,91.38
2016-03-31T04:19:53.752Z,91.14
2016-03-31T04:20:53.754Z,91.05
2016-03-31T04:21:53.756Z,91.24
2016-03-31T04:22:53.759Z,91.05
2016-03-31T04:23:53.746Z,91.05
2016-03-31T04:24:53.765Z,91.05
2016-03-31T04:25:53.767Z,91.05
2016-03-31T04:26:53.823Z,91.42
2016-03-31T04:27:53.908Z,91.05
2016-03-31T04:28:53.933Z,91.52
2016-03-31T04:29:54.004Z,91.24
2016-03-31T04:30:54.017Z,91.52
2016-03-31T04:31:54.038Z,91.24
2016-03-31T04:32:54.060Z,91.33
2016-03-31T04:33:54.081Z,91.05
2016-03-31T04:34:54.103Z,91.52
2016-03-31T04:35:54.121Z,91.14
2016-03-31T04:36:54.114Z,90.95
2016-03-31T04:37:54.139Z,91.14
2016-03-31T04:38:54.148Z,91.14
2016-03-31T04:39:54.141Z,91.05
2016-03-31T04:40:54.133Z,90.95
2016-03-31T04:41:54.154Z,91.24
2016-03-31T04:42:54.144Z,91.33
2016-03-31T04:43:54.148Z,90.95
2016-03-31T04:44:54.153Z,90.95
2016-03-31T04:45:54.158Z,91.24
2016-03-31T04:46:54.147Z,90.86
2016-03-31T04:47:54.150Z,91.05
2016-03-31T04:48:54.155Z,91.24
2016-03-31T04:49:54.158Z,91.05
2016-03-31T04:50:54.162Z,90.86
2016-03-31T04:51:54.165Z,91.24
2016-03-31T04:52:54.168Z,90.76
2016-03-31T04:53:54.155Z,91.14
2016-03-31T04:54:54.174Z,91.24
2016-03-31T04:55:54.161Z,90.95
2016-03-31T04:56:54.180Z,91.24
2016-03-31T04:57:54.167Z,91.24
2016-03-31T04:58:54.170Z,90.95
2016-03-31T04:59:54.156Z,90.95
2016-03-31T05:00:54.159Z,90.95
2016-03-31T05:01:54.162Z,90.86
2016-03-31T05:02:54.165Z,91.05
2016-03-31T05:03:54.168Z,90.95
2016-03-31T05:04:54.155Z,90.95
2016-03-31T05:05:54.158Z,90.95
2016-03-31T05:06:54.161Z,91.24
2016-03-31T05:07:54.164Z,90.95
2016-03-31T05:08:54.150Z,91.05
2016-03-31T05:09:54.153Z,91.05
2016-03-31T05:10:54.155Z,91.19
2016-03-31T05:11:54.158Z,91.05
2016-03-31T05:12:54.161Z,91.9
2016-03-31T05:13:54.163Z,91.9
2016-03-31T05:14:54.166Z,91.9
2016-03-31T05:15:54.154Z,91.52
2016-03-31T05:16:54.156Z,91.8
2016-03-31T05:17:54.175Z,91.52
2016-03-31T05:18:54.162Z,91.61
2016-03-31T05:19:54.148Z,92.09
2016-03-31T05:20:54.152Z,91.9
2016-03-31T05:21:54.154Z,91.9
2016-03-31T05:22:54.157Z,91.99
2016-03-31T05:23:54.143Z,92.09
2016-03-31T05:24:54.162Z,92.28
2016-03-31T05:25:54.149Z,91.9
2016-03-31T05:26:54.152Z,91.61
2016-03-31T05:27:54.155Z,91.9
2016-03-31T05:28:54.157Z,92.47
2016-03-31T05:29:54.144Z,92.47
2016-03-31T05:30:54.148Z,92.57
2016-03-31T05:31:54.165Z,92.28
2016-03-31T05:32:54.152Z,92.57
2016-03-31T05:33:54.155Z,92.47
2016-03-31T05:34:54.158Z,92.18
2016-03-31T05:35:54.160Z,92.09
2016-03-31T05:36:54.163Z,92.28
2016-03-31T05:37:54.150Z,92.09
2016-03-31T05:38:54.152Z,92.38
2016-03-31T05:39:54.156Z,92.47
2016-03-31T05:40:54.158Z,91.99
2016-03-31T05:41:54.145Z,92.14
2016-03-31T05:42:54.147Z,92.33
2016-03-31T05:43:54.166Z,92.42
2016-03-31T05:44:54.152Z,92.52
2016-03-31T05:45:54.156Z,92.61
2016-03-31T05:46:54.158Z,92.42
2016-03-31T05:47:54.161Z,92.52
2016-03-31T05:48:54.163Z,92.14
2016-03-31T05:49:54.152Z,92.42
2016-03-31T05:50:54.169Z,92.42
2016-03-31T05:51:54.156Z,92.99
2016-03-31T05:52:54.144Z,92.9
2016-03-31T05:53:54.146Z,92.52
2016-03-31T05:54:54.165Z,93.46
2016-03-31T05:55:54.152Z,93.32
2016-03-31T05:56:54.154Z,93.41
2016-03-31T05:57:54.173Z,93.7
2016-03-31T05:58:54.144Z,93.7
2016-03-31T05:59:54.147Z,93.46
2016-03-31T06:00:54.164Z,93.65
2016-03-31T06:01:54.153Z,94.32
2016-03-31T06:02:54.155Z,93.89
2016-03-31T06:03:54.142Z,93.55
2016-03-31T06:04:54.145Z,93.37
2016-03-31T06:05:54.147Z,92.27
2016-03-31T06:06:54.150Z,92.36
2016-03-31T06:07:54.153Z,92.03
2016-03-31T06:08:54.155Z,91.7
2016-03-31T06:09:54.158Z,91.08
2016-03-31T06:10:54.161Z,89.89
2016-03-31T06:11:54.180Z,86.73
2016-03-31T06:12:54.150Z,84.86
2016-03-31T06:13:54.169Z,81.41
2016-03-31T06:14:54.156Z,77.44
2016-03-31T06:15:54.158Z,73.99
2016-03-31T06:16:54.161Z,70.5
2016-03-31T06:17:54.164Z,66.96
2016-03-31T06:18:54.166Z,63.73
2016-03-31T06:19:54.169Z,59.81
2016-03-31T06:20:54.171Z,57.8
2016-03-31T06:21:54.159Z,55.44
2016-03-31T06:22:54.162Z,53.52
2016-03-31T06:23:54.180Z,52.59
2016-03-31T06:24:54.182Z,50.48
2016-03-31T06:25:54.185Z,48.97
2016-03-31T06:26:54.188Z,47.08
2016-03-31T06:27:54.176Z,45.86
2016-03-31T06:28:54.193Z,44.54
2016-03-31T06:29:54.181Z,41.77
2016-03-31T06:30:54.199Z,39.08
2016-03-31T06:31:54.186Z,39.39
2016-03-31T06:32:54.204Z,38.34
2016-03-31T06:33:54.206Z,36.33
2016-03-31T06:34:54.210Z,35.77
2016-03-31T06:35:54.212Z,35
2016-03-31T06:36:54.214Z,34.45
2016-03-31T06:37:54.218Z,32.73
2016-03-31T06:38:54.220Z,30.74
2016-03-31T06:39:54.223Z,30.16
2016-03-31T06:40:54.226Z,29.77
2016-03-31T06:41:54.228Z,28.83
2016-03-31T06:42:54.231Z,27.87
2016-03-31T06:43:54.233Z,27.97
2016-03-31T06:44:54.236Z,27.4
2016-03-31T06:45:54.239Z,26.45
2016-03-31T06:46:54.257Z,25.79
2016-03-31T06:47:54.261Z,25.03
2016-03-31T06:48:54.263Z,24.09
2016-03-31T06:49:54.265Z,23.42
2016-03-31T06:50:54.269Z,22.55
2016-03-31T06:51:54.287Z,21.02
2016-03-31T06:52:54.273Z,20.93
2016-03-31T06:53:54.277Z,20.64
2016-03-31T06:54:54.295Z,20.73
2016-03-31T06:55:54.298Z,20.36
2016-03-31T06:56:54.301Z,19.98
2016-03-31T06:57:54.318Z,19.11
2016-03-31T06:58:54.337Z,18.54
2016-03-31T06:59:54.745Z,17.77
2016-03-31T07:00:54.326Z,17.4
2016-03-31T07:01:54.345Z,17.4
2016-03-31T07:02:54.331Z,17.4
2016-03-31T07:03:54.335Z,17.1
2016-03-31T07:04:54.337Z,17
2016-03-31T07:05:54.355Z,16.61
2016-03-31T07:06:54.359Z,16.14
2016-03-31T07:07:54.366Z,15.56
2016-03-31T07:08:54.369Z,15.95
2016-03-31T07:09:54.371Z,15.17
2016-03-31T07:10:54.374Z,14.98
2016-03-31T07:11:54.392Z,14.89
2016-03-31T07:12:54.394Z,14.51
2016-03-31T07:13:54.397Z,14.22
2016-03-31T07:14:54.400Z,13.82
2016-03-31T07:15:54.418Z,13.82
2016-03-31T07:16:54.422Z,13.92
2016-03-31T07:17:54.440Z,14.12
2016-03-31T07:18:54.442Z,14.21
2016-03-31T07:19:54.446Z,14.4
2016-03-31T07:20:54.448Z,14.3
2016-03-31T07:21:54.450Z,14.12
2016-03-31T07:22:54.453Z,13.92
2016-03-31T07:23:54.457Z,13.15
2016-03-31T07:24:54.474Z,13.06
2016-03-31T07:25:54.476Z,12.77
2016-03-31T07:27:14.248Z,11.81
2016-03-31T07:27:54.498Z,12.11
2016-03-31T07:28:54.500Z,11.04
2016-03-31T07:29:54.503Z,11.04
2016-03-31T07:30:54.506Z,10.94
2016-03-31T07:31:54.508Z,10.55
2016-03-31T07:32:54.526Z,10.36
2016-03-31T07:33:54.529Z,9.88
2016-03-31T07:34:54.532Z,9.5
2016-03-31T07:35:54.550Z,9.01
2016-03-31T07:36:54.553Z,8.92
2016-03-31T07:37:54.556Z,8.53
2016-03-31T07:38:54.574Z,8.44
2016-03-31T07:39:54.577Z,8.63
2016-03-31T07:40:54.580Z,7.75
2016-03-31T07:41:54.582Z,8.15
2016-03-31T07:42:54.600Z,8.05
2016-03-31T07:43:54.619Z,7.46
2016-03-31T07:44:54.638Z,7.17
2016-03-31T07:45:54.608Z,7.17
2016-03-31T07:46:54.627Z,7.17
2016-03-31T07:47:54.645Z,6.67
2016-03-31T07:48:54.633Z,7.16
2016-03-31T07:49:54.651Z,7.26
2016-03-31T07:50:54.654Z,7.06
2016-03-31T07:51:54.672Z,7.16
2016-03-31T07:52:54.659Z,6.96
2016-03-31T07:53:54.677Z,7.07
2016-03-31T07:54:54.679Z,6.97
2016-03-31T07:55:54.682Z,6.77
2016-03-31T07:56:54.701Z,6.48
2016-03-31T07:57:54.703Z,6.58
2016-03-31T07:58:54.706Z,5.89
2016-03-31T07:59:54.724Z,6.29
2016-03-31T08:00:54.727Z,5.79
2016-03-31T08:01:54.729Z,5.99
2016-03-31T08:02:54.748Z,5.9
2016-03-31T08:03:54.750Z,5.41
2016-03-31T08:04:54.753Z,5.6
2016-03-31T08:05:54.756Z,5.51
2016-03-31T08:06:54.759Z,5.41
2016-03-31T08:07:54.778Z,5.31
2016-03-31T08:08:54.780Z,5.32
2016-03-31T08:09:54.783Z,5.22
2016-03-31T08:10:54.786Z,5.51
2016-03-31T08:11:54.804Z,5.02
2016-03-31T08:12:54.806Z,4.83
2016-03-31T08:13:54.809Z,4.73
2016-03-31T08:14:54.827Z,4.93
2016-03-31T08:15:54.830Z,4.93
2016-03-31T08:16:54.848Z,4.53
2016-03-31T08:17:54.836Z,4.14
2016-03-31T08:18:54.854Z,3.85
2016-03-31T08:19:54.872Z,3.45
2016-03-31T08:20:54.859Z,3.65
2016-03-31T08:21:54.877Z,3.55
2016-03-31T08:22:54.880Z,3.36
2016-03-31T08:23:54.882Z,3.65
2016-03-31T08:24:54.901Z,3.26
2016-03-31T08:25:54.903Z,3.25
2016-03-31T08:26:54.906Z,3.06
2016-03-31T08:27:54.924Z,3.16
2016-03-31T08:28:54.926Z,3.36
2016-03-31T08:29:54.930Z,3.36
2016-03-31T08:30:54.932Z,3.36
2016-03-31T08:31:54.951Z,3.16
2016-03-31T08:32:54.953Z,3.06
2016-03-31T08:33:54.972Z,2.96
2016-03-31T08:34:54.959Z,3.06
2016-03-31T08:35:54.978Z,3.06
2016-03-31T08:36:54.980Z,2.96
2016-03-31T08:37:54.983Z,2.96
2016-03-31T08:38:54.986Z,3.16
2016-03-31T08:39:54.988Z,3.06
2016-03-31T08:40:54.992Z,2.96
2016-03-31T08:41:55.009Z,2.57
2016-03-31T08:42:55.012Z,2.67
2016-03-31T08:43:55.015Z,2.76
2016-03-31T08:44:55.017Z,2.37
2016-03-31T08:45:55.036Z,2.67
2016-03-31T08:46:55.039Z,2.17
2016-03-31T08:47:55.072Z,2.37
2016-03-31T08:48:55.044Z,2.28
2016-03-31T08:49:55.047Z,2.28
2016-03-31T08:50:55.049Z,2.37
2016-03-31T08:51:55.113Z,2.37
2016-03-31T08:52:55.085Z,1.98
2016-03-31T08:53:55.073Z,2.17
2016-03-31T08:54:55.076Z,2.28
2016-03-31T08:55:55.093Z,1.98
2016-03-31T08:56:55.096Z,1.88
2016-03-31T08:57:55.099Z,1.98
2016-03-31T08:58:55.118Z,1.39
2016-03-31T08:59:55.104Z,1.39
2016-03-31T09:00:55.107Z,1.18
2016-03-31T09:01:55.126Z,1.09
2016-03-31T09:02:55.129Z,1.09
2016-03-31T09:03:55.146Z,1.39
2016-03-31T09:04:55.164Z,1.48
2016-03-31T09:05:55.152Z,1.59
2016-03-31T09:06:55.154Z,1.48
2016-03-31T09:07:55.156Z,1.48
2016-03-31T09:08:55.159Z,1.98
2016-03-31T09:09:55.162Z,2.57
2016-03-31T09:10:55.165Z,3.35
2016-03-31T09:11:55.167Z,4.04
2016-03-31T09:12:55.186Z,5.11
2016-03-31T09:13:55.189Z,5.99
2016-03-31T09:14:55.175Z,6.57
2016-03-31T09:15:55.194Z,6.95
2016-03-31T09:16:55.197Z,7.83
2016-03-31T09:17:55.216Z,7.92
2016-03-31T09:18:55.203Z,8.6
2016-03-31T09:19:55.205Z,8.01
2016-03-31T09:20:55.208Z,8.21
2016-03-31T09:21:55.227Z,8.11
2016-03-31T09:22:55.229Z,7.82
2016-03-31T09:23:55.232Z,8.21
2016-03-31T09:24:55.249Z,8.41
2016-03-31T09:25:55.253Z,8.31
2016-03-31T09:26:55.240Z,8.5
2016-03-31T09:27:55.258Z,8.4
2016-03-31T09:28:55.261Z,8.5
2016-03-31T09:29:55.263Z,8.4
2016-03-31T09:30:55.266Z,8.4
2016-03-31T09:31:55.284Z,8.8
2016-03-31T09:32:55.271Z,8.89
2016-03-31T09:33:55.290Z,9.47
2016-03-31T09:34:55.293Z,9.18
2016-03-31T09:35:55.279Z,9.96
2016-03-31T09:36:55.314Z,10.06
2016-03-31T09:37:55.301Z,10.35
2016-03-31T09:38:55.303Z,10.14
2016-03-31T09:39:55.306Z,11.01
2016-03-31T09:40:55.309Z,11.78
2016-03-31T09:41:55.312Z,13.41
2016-03-31T09:42:55.314Z,14.95
2016-03-31T09:43:55.333Z,15.51
2016-03-31T09:44:55.336Z,16.17
2016-03-31T09:45:55.339Z,17.02
2016-03-31T09:46:55.341Z,18.85
2016-03-31T09:47:55.343Z,20.48
2016-03-31T09:48:55.346Z,21.52
2016-03-31T09:49:55.348Z,21.42
2016-03-31T09:50:55.351Z,21.89
2016-03-31T09:51:55.354Z,23.14
2016-03-31T09:52:55.357Z,23.81
2016-03-31T09:53:55.375Z,23.51
2016-03-31T09:54:55.378Z,23.9
2016-03-31T09:55:55.380Z,23.8
2016-03-31T09:56:55.383Z,23.71
2016-03-31T09:57:55.230Z,23.71
2016-03-31T09:58:55.388Z,22.92
2016-03-31T09:59:55.391Z,22.63
2016-03-31T10:00:55.393Z,21.96
2016-03-31T10:01:55.396Z,21.77
2016-03-31T10:02:55.493Z,22.15
2016-03-31T10:03:55.402Z,22.15
2016-03-31T10:04:55.405Z,22.73
2016-03-31T10:05:55.407Z,22.72
2016-03-31T10:06:55.409Z,23
2016-03-31T10:07:55.412Z,22.24
2016-03-31T10:08:55.431Z,21.47
2016-03-31T10:09:55.434Z,20.89
2016-03-31T10:10:55.452Z,21.27
2016-03-31T10:11:55.439Z,21.47
2016-03-31T10:12:55.472Z,21.47
2016-03-31T10:13:55.444Z,20.89
2016-03-31T10:14:55.447Z,20.7
2016-03-31T10:15:55.450Z,20.79
2016-03-31T10:16:55.453Z,20.6
2016-03-31T10:17:55.455Z,20.02
2016-03-31T10:18:55.458Z,19.45
2016-03-31T10:19:55.461Z,19.26
2016-03-31T10:20:55.463Z,18.88
2016-03-31T10:21:55.482Z,18.7
2016-03-31T10:22:55.484Z,18.02
2016-03-31T10:23:55.487Z,18.3
2016-03-31T10:24:55.489Z,18.7
2016-03-31T10:25:55.492Z,18.12
2016-03-31T10:26:55.495Z,18.12
2016-03-31T10:27:55.497Z,18.21
2016-03-31T10:28:55.500Z,18.12
2016-03-31T10:29:55.502Z,17.63
2016-03-31T10:30:55.521Z,17.82
2016-03-31T10:31:55.508Z,17.54
2016-03-31T10:32:55.511Z,17.92
2016-03-31T10:33:55.513Z,17.73
2016-03-31T10:34:55.532Z,17.73
2016-03-31T10:35:55.534Z,18.02
2016-03-31T10:36:55.537Z,18.21
2016-03-31T10:37:55.540Z,18.5
2016-03-31T10:38:55.527Z,18.21
2016-03-31T10:39:55.546Z,18.4
2016-03-31T10:40:55.532Z,18.4
2016-03-31T10:41:55.551Z,18.4
2016-03-31T10:42:55.553Z,18.12
2016-03-31T10:43:55.557Z,17.93
2016-03-31T10:44:55.559Z,17.74
2016-03-31T10:45:55.562Z,17.74
2016-03-31T10:46:55.564Z,17.07
2016-03-31T10:47:55.567Z,17.27
2016-03-31T10:48:55.586Z,17.46
2016-03-31T10:49:55.588Z,17.65
2016-03-31T10:50:55.575Z,17.84
2016-03-31T10:51:55.578Z,17.75
2016-03-31T10:52:55.581Z,18.03
2016-03-31T10:53:55.599Z,18.12
2016-03-31T10:54:55.602Z,18.51
2016-03-31T10:55:55.604Z,18.51
2016-03-31T10:56:55.607Z,18.12
2016-03-31T10:57:55.610Z,18.51
2016-03-31T10:58:55.613Z,18.9
2016-03-31T10:59:55.616Z,18.9
2016-03-31T11:00:55.618Z,18.41
2016-03-31T11:01:55.621Z,18.6
2016-03-31T11:02:55.624Z,18.6
2016-03-31T11:03:55.626Z,18.22
2016-03-31T11:04:55.629Z,18.22
2016-03-31T11:05:55.647Z,19.28
2016-03-31T11:06:55.634Z,19.28
2016-03-31T11:07:55.730Z,18.99
2016-03-31T11:08:55.654Z,18.99
2016-03-31T11:09:55.657Z,18.9
2016-03-31T11:10:55.645Z,19
2016-03-31T11:11:55.648Z,18.32
2016-03-31T11:12:55.650Z,18.32
2016-03-31T11:13:55.653Z,18.32
2016-03-31T11:14:55.656Z,18.52
2016-03-31T11:15:55.659Z,18.62
2016-03-31T11:16:55.676Z,18.9
2016-03-31T11:17:55.664Z,18.71
2016-03-31T11:18:55.667Z,18.62
2016-03-31T11:19:55.684Z,18.04
2016-03-31T11:20:55.687Z,17.66
2016-03-31T11:21:55.690Z,17.76
2016-03-31T11:22:55.692Z,18.04
2016-03-31T11:23:55.695Z,18.33
2016-03-31T11:24:55.698Z,18.14
2016-03-31T11:25:55.701Z,18.44
2016-03-31T11:26:55.703Z,18.44
2016-03-31T11:27:55.706Z,18.34
2016-03-31T11:28:55.708Z,18.05
2016-03-31T11:29:55.711Z,18.63
2016-03-31T11:31:06.635Z,18.44
2016-03-31T11:31:55.716Z,18.15
2016-03-31T11:32:55.719Z,17.76
2016-03-31T11:33:55.721Z,17.29
2016-03-31T11:34:55.725Z,17
2016-03-31T11:35:55.743Z,16.9
2016-03-31T11:36:55.745Z,17.01
2016-03-31T11:37:55.732Z,16.43
2016-03-31T11:38:55.751Z,16.14
2016-03-31T11:39:56.098Z,17.21
2016-03-31T11:40:55.757Z,17.69
2016-03-31T11:41:55.759Z,16.44
2016-03-31T11:42:55.762Z,15.47
2016-03-31T11:43:55.764Z,15.28
2016-03-31T11:44:55.767Z,15.95
2016-03-31T11:45:55.770Z,15.95
2016-03-31T11:46:55.773Z,15.76
2016-03-31T11:47:55.806Z,15.09
2016-03-31T11:48:55.778Z,14.99
2016-03-31T11:49:55.780Z,14.7
2016-03-31T11:50:55.783Z,13.84
2016-03-31T11:51:55.786Z,13.93
2016-03-31T11:52:55.789Z,13.84
2016-03-31T11:53:55.792Z,13.84
2016-03-31T11:54:55.794Z,13.93
2016-03-31T11:55:55.797Z,14.12
2016-03-31T11:56:55.815Z,14.03
2016-03-31T11:57:55.818Z,14.22
2016-03-31T11:58:55.821Z,14.22
2016-03-31T11:59:55.807Z,13.83
2016-03-31T12:00:55.827Z,13.44
2016-03-31T12:01:55.829Z,14.22
2016-03-31T12:02:55.847Z,14.12
2016-03-31T12:03:55.835Z,13.82
2016-03-31T12:04:55.838Z,13.82
2016-03-31T12:05:55.855Z,13.63
2016-03-31T12:06:55.843Z,13.63
2016-03-31T12:07:55.845Z,13.54
2016-03-31T12:08:55.848Z,13.54
2016-03-31T12:09:55.850Z,13.73
2016-03-31T12:10:55.853Z,13.73
2016-03-31T12:11:55.856Z,13.64
2016-03-31T12:12:55.859Z,13.93
2016-03-31T12:13:55.862Z,13.63
2016-03-31T12:14:55.864Z,13.92
2016-03-31T12:15:55.867Z,14.12
2016-03-31T12:16:55.869Z,13.73
2016-03-31T12:17:55.872Z,14.12
2016-03-31T12:18:55.874Z,14.03
2016-03-31T12:19:55.893Z,14.03
2016-03-31T12:20:55.880Z,13.35
2016-03-31T12:21:55.898Z,13.93
2016-03-31T12:22:55.901Z,14.03
2016-03-31T12:23:55.920Z,13.65
2016-03-31T12:24:55.906Z,13.45
2016-03-31T12:25:55.909Z,13.56
2016-03-31T12:26:55.911Z,13.45
2016-03-31T12:27:55.914Z,12.97
2016-03-31T12:28:55.916Z,13.07
2016-03-31T12:29:55.919Z,13.16
2016-03-31T12:30:55.922Z,13.35
2016-03-31T12:31:56.238Z,13.65
2016-03-31T12:32:55.927Z,13.17
2016-03-31T12:34:55.948Z,12.98
2016-03-31T12:35:55.951Z,13.17
2016-03-31T12:36:55.954Z,13.26
2016-03-31T12:37:55.957Z,12.98
2016-03-31T12:38:55.960Z,12.98
2016-03-31T12:39:55.962Z,12.78
2016-03-31T12:40:55.965Z,12.78
2016-03-31T12:41:55.967Z,12.88
2016-03-31T12:42:55.970Z,12.3
2016-03-31T12:43:55.973Z,12.4
2016-03-31T12:44:55.976Z,12.21
2016-03-31T12:45:55.978Z,12.41
2016-03-31T12:46:55.981Z,12.02
2016-03-31T12:47:55.998Z,12.02
2016-03-31T12:48:55.986Z,11.82
2016-03-31T12:49:55.989Z,11.83
2016-03-31T12:50:55.992Z,11.83
2016-03-31T12:51:56.010Z,11.25
2016-03-31T12:52:56.012Z,11.35
2016-03-31T12:53:56.000Z,11.06
2016-03-31T12:54:56.002Z,11.16
2016-03-31T12:55:56.020Z,11.16
2016-03-31T12:56:56.008Z,10.96
2016-03-31T12:57:56.026Z,11.06
2016-03-31T12:58:56.028Z,11.16
2016-03-31T12:59:56.031Z,11.35
2016-03-31T13:00:56.033Z,11.35
2016-03-31T13:01:56.037Z,11.45